Time;durP1;ratioP1;P1;durP2;ratioP2;P2;SDS_P1;SDS_P2;PMS_P1;PMS_P2;Temp;Humidity;BMP_temperature;BMP_pressure;BME280_temperature;BME280_humidity;BME280_pressure;Samples;Min_cycle;Max_cycle;Signal;HPM_P1;HPM_P2
2023/05/26 00:01:07;;;;;;;;;;;;;;;17.51;69.32;100731.13;5069992;28;19908;-57
2023/05/26 00:03:34;;;;;;;;;;;;;;;17.49;68.49;100730.34;5069173;28;19920;-56
2023/05/26 00:06:03;;;;;;;;;;;;;;;17.48;68.67;100727.72;5069100;28;20276;-57
2023/05/26 00:08:28;;;;;;;;;;;;;;;17.44;69.49;100735.03;5070271;28;20386;-57
2023/05/26 00:10:53;;;;;;;;;;;;;;;17.42;69.02;100734.25;5070023;28;19912;-57
2023/05/26 00:13:18;;;;;;;;;;;;;;;17.47;68.27;100734.03;5070053;28;19908;-57
2023/05/26 00:15:44;;;;;;;;;;;;;;;17.45;69.30;100742.19;5067909;28;19920;-57
2023/05/26 00:18:09;;;;;;;;;;;;;;;17.46;69.21;100737.69;5068694;28;19916;-57
2023/05/26 00:20:35;;;;;;;;;;;;;;;17.44;68.84;100735.03;5068846;28;19959;-57
2023/05/26 00:23:00;;;;;;;;;;;;;;;17.40;68.84;100738.81;5068748;28;20382;-57
2023/05/26 00:25:25;;;;;;;;;;;;;;;17.43;68.84;100740.50;5067644;28;19952;-57
2023/05/26 00:27:50;;;;;;;;;;;;;;;17.33;68.93;100734.66;5068715;28;19916;-57
2023/05/26 00:30:16;;;;;;;;;;;;;;;17.36;69.28;100736.34;5068293;28;19959;-57
2023/05/26 00:32:41;;;;;;;;;;;;;;;17.40;69.32;100738.81;5069199;28;20011;-57
2023/05/26 00:35:07;;;;;;;;;;;;;;;17.33;69.25;100725.75;5067607;28;19920;-57
2023/05/26 00:37:32;;;;;;;;;;;;;;;17.30;69.86;100732.13;5069334;28;19916;-57
2023/05/26 00:39:58;;;;;;;;;;;;;;;17.26;69.29;100735.94;5068661;28;19912;-57
2023/05/26 00:42:23;;;;;;;;;;;;;;;17.21;69.24;100727.22;5067577;28;19916;-57
2023/05/26 00:44:49;;;;;;;;;;;;;;;17.15;69.85;100724.81;5068571;28;19916;-57
2023/05/26 00:47:15;;;;;;;;;;;;;;;17.12;70.26;100722.28;5049246;28;20331;-57
2023/05/26 00:49:40;;;;;;;;;;;;;;;17.12;69.95;100722.28;5068316;28;19991;-57
2023/05/26 00:52:06;;;;;;;;;;;;;;;17.05;70.02;100719.00;5068388;28;19916;-58
2023/05/26 00:54:32;;;;;;;;;;;;;;;17.04;70.43;100724.47;5068865;28;20331;-57
2023/05/26 00:56:58;;;;;;;;;;;;;;;17.00;70.56;100722.88;5065939;28;19965;-57
2023/05/26 00:59:23;;;;;;;;;;;;;;;16.99;70.42;100723.81;5068560;28;19916;-57
2023/05/26 01:01:51;;;;;;;;;;;;;;;16.96;70.61;100723.97;5069243;28;19912;-57
2023/05/26 01:04:17;;;;;;;;;;;;;;;16.90;71.14;100725.09;5059616;28;19921;-57
2023/05/26 01:06:44;;;;;;;;;;;;;;;16.59;71.51;100697.09;5069267;28;19939;-57
2023/05/26 01:09:10;;;;;;;;;;;;;;;16.76;71.56;100722.22;5067616;28;19951;-57
2023/05/26 01:11:56;;;;;;;;;;;;;;;16.73;72.08;100716.09;5068862;28;19912;-56
2023/05/26 01:14:40;;;;;;;;;;;;;;;16.71;71.92;100709.91;5067772;28;19912;-57
2023/05/26 01:17:11;;;;;;;;;;;;;;;16.69;72.21;100712.69;5068952;28;20011;-57
2023/05/26 01:20:06;;;;;;;;;;;;;;;16.63;72.57;100707.59;5069237;28;19978;-57
2023/05/26 01:23:04;;;;;;;;;;;;;;;16.64;72.70;100709.34;5069123;28;19923;-57
2023/05/26 01:25:56;;;;;;;;;;;;;;;16.66;73.26;100709.25;5004954;28;20582;-57
2023/05/26 01:28:32;;;;;;;;;;;;;;;16.55;73.28;100706.22;5067265;28;20410;-57
2023/05/26 01:30:58;;;;;;;;;;;;;;;16.56;74.01;100710.63;5072763;28;19908;-56
2023/05/26 01:33:23;;;;;;;;;;;;;;;16.55;74.38;100708.91;5073373;28;20299;-57
2023/05/26 01:35:49;;;;;;;;;;;;;;;16.47;74.07;100713.75;5071961;28;20411;-57
2023/05/26 01:38:14;;;;;;;;;;;;;;;16.42;74.13;100713.06;5073065;28;19917;-57
2023/05/26 01:40:41;;;;;;;;;;;;;;;16.44;74.00;100705.81;5073063;28;19933;-57
2023/05/26 01:43:36;;;;;;;;;;;;;;;16.46;73.93;100711.97;5072994;28;19908;-57
2023/05/26 01:46:05;;;;;;;;;;;;;;;16.48;74.81;100713.69;5054907;28;19951;-57
2023/05/26 01:48:31;;;;;;;;;;;;;;;16.48;74.31;100712.78;5071924;28;20513;-57
2023/05/26 01:50:57;;;;;;;;;;;;;;;16.50;73.97;100708.22;5069688;28;19908;-57
2023/05/26 01:53:33;;;;;;;;;;;;;;;16.50;74.38;100710.91;5072879;28;19908;-56
2023/05/26 01:55:59;;;;;;;;;;;;;;;16.48;73.76;100711.00;5071878;28;19916;-56
2023/05/26 01:58:25;;;;;;;;;;;;;;;16.45;74.03;100707.53;5072664;28;19958;-57
2023/05/26 02:00:52;;;;;;;;;;;;;;;16.38;74.09;100706.94;5071909;28;19966;-56
2023/05/26 02:03:17;;;;;;;;;;;;;;;16.32;74.49;100709.03;5072165;28;19928;-56
2023/05/26 02:05:43;;;;;;;;;;;;;;;16.24;74.21;100708.50;5071115;28;19920;-57
2023/05/26 02:08:11;;;;;;;;;;;;;;;16.19;74.10;100702.47;5071018;28;19916;-57
2023/05/26 02:10:38;;;;;;;;;;;;;;;16.18;75.37;100704.28;5070138;28;20418;-56
2023/05/26 02:13:04;;;;;;;;;;;;;;;16.12;75.18;100703.66;5071843;28;20002;-57
2023/05/26 02:15:29;;;;;;;;;;;;;;;16.15;75.44;100708.91;5072079;28;20015;-57
2023/05/26 02:17:57;;;;;;;;;;;;;;;16.05;75.49;100708.44;5071950;28;20030;-57
2023/05/26 02:20:22;;;;;;;;;;;;;;;15.96;75.87;100708.84;5070553;28;19919;-57
2023/05/26 02:22:48;;;;;;;;;;;;;;;15.98;75.67;100711.47;5072285;28;20054;-57
2023/05/26 02:25:13;;;;;;;;;;;;;;;15.90;76.24;100717.16;5071297;28;19922;-57
2023/05/26 02:27:38;;;;;;;;;;;;;;;15.91;75.90;100721.59;5072091;28;19981;-57
2023/05/26 02:30:04;;;;;;;;;;;;;;;15.90;76.21;100714.47;5071063;28;19920;-57
2023/05/26 02:32:30;;;;;;;;;;;;;;;15.89;76.14;100715.41;5072162;28;20283;-56
2023/05/26 02:34:56;;;;;;;;;;;;;;;15.82;75.73;100705.88;5072032;28;19919;-57
2023/05/26 02:37:22;;;;;;;;;;;;;;;15.86;76.67;100714.69;5068048;28;20315;-57
2023/05/26 02:39:47;;;;;;;;;;;;;;;15.79;75.63;100712.28;5070671;28;19962;-57
2023/05/26 02:42:12;;;;;;;;;;;;;;;15.82;76.33;100701.41;5071933;28;19938;-57
2023/05/26 02:44:37;;;;;;;;;;;;;;;15.81;76.95;100704.16;5071888;28;19970;-57
2023/05/26 02:47:03;;;;;;;;;;;;;;;15.71;76.86;100701.00;5071631;28;19912;-57
2023/05/26 02:49:28;;;;;;;;;;;;;;;15.66;77.29;100707.47;5069204;28;19957;-57
2023/05/26 02:51:53;;;;;;;;;;;;;;;15.63;77.47;100703.09;5071460;28;19915;-57
2023/05/26 02:54:18;;;;;;;;;;;;;;;15.65;77.17;100703.91;5070744;28;19916;-57
2023/05/26 02:56:44;;;;;;;;;;;;;;;15.74;77.21;100695.50;5071652;28;20451;-57
2023/05/26 02:59:09;;;;;;;;;;;;;;;15.75;76.74;100705.28;5053078;28;19912;-57
2023/05/26 03:01:35;;;;;;;;;;;;;;;15.72;76.41;100705.41;5071535;28;19928;-57
2023/05/26 03:04:00;;;;;;;;;;;;;;;15.71;77.03;100706.38;5071165;28;20015;-57
2023/05/26 03:06:26;;;;;;;;;;;;;;;15.79;77.88;100700.66;5070144;28;20326;-57
2023/05/26 03:08:51;;;;;;;;;;;;;;;15.77;77.15;100698.03;5057852;28;19973;-57
2023/05/26 03:11:16;;;;;;;;;;;;;;;15.74;76.33;100700.84;5071249;28;19916;-57
2023/05/26 03:13:41;;;;;;;;;;;;;;;15.80;76.75;100699.69;5071435;28;19912;-57
2023/05/26 03:16:07;;;;;;;;;;;;;;;15.79;77.14;100700.66;5071413;28;19919;-57
2023/05/26 03:18:32;;;;;;;;;;;;;;;15.86;77.23;100695.91;5070268;28;20407;-57
2023/05/26 03:20:58;;;;;;;;;;;;;;;15.81;76.68;100693.41;5053499;28;20288;-57
2023/05/26 03:23:24;;;;;;;;;;;;;;;15.79;77.34;100689.94;5071223;28;19966;-57
2023/05/26 03:25:49;;;;;;;;;;;;;;;15.76;77.58;100693.59;5070989;28;20029;-57
2023/05/26 03:28:15;;;;;;;;;;;;;;;15.74;77.01;100700.84;5069305;28;19916;-57
2023/05/26 03:30:40;;;;;;;;;;;;;;;15.81;77.28;100683.53;5069856;28;19915;-57
2023/05/26 03:33:05;;;;;;;;;;;;;;;15.77;76.54;100679.25;5069291;28;19909;-57
2023/05/26 03:35:31;;;;;;;;;;;;;;;15.71;76.84;100684.03;5068903;28;19908;-56
2023/05/26 03:37:56;;;;;;;;;;;;;;;15.69;77.46;100691.25;5068154;28;19912;-57
2023/05/26 03:40:21;;;;;;;;;;;;;;;15.61;77.88;100691.59;5068851;28;20649;-57
2023/05/26 03:42:47;;;;;;;;;;;;;;;15.60;77.75;100697.88;5065714;28;19912;-56
2023/05/26 03:45:15;;;;;;;;;;;;;;;15.60;77.23;100692.50;5067302;28;19920;-57
2023/05/26 03:47:40;;;;;;;;;;;;;;;15.54;78.84;100690.09;5066674;28;20507;-56
2023/05/26 03:50:06;;;;;;;;;;;;;;;15.51;78.30;100687.56;5049401;28;19909;-56
2023/05/26 03:52:31;;;;;;;;;;;;;;;15.49;78.55;100686.75;5056923;28;19912;-57
2023/05/26 03:54:56;;;;;;;;;;;;;;;15.50;78.45;100698.34;5069660;28;19913;-56
2023/05/26 03:57:22;;;;;;;;;;;;;;;15.53;78.55;100695.53;5050988;28;19912;-57
2023/05/26 03:59:47;;;;;;;;;;;;;;;15.50;78.20;100698.34;5070208;28;20291;-56
2023/05/26 04:02:12;;;;;;;;;;;;;;;15.50;78.09;100693.81;5070257;28;19924;-56
2023/05/26 04:04:38;;;;;;;;;;;;;;;15.48;78.81;100693.03;5069075;28;19975;-57
2023/05/26 04:07:04;;;;;;;;;;;;;;;15.47;79.01;100693.97;5069864;28;19955;-56
2023/05/26 04:09:30;;;;;;;;;;;;;;;15.49;78.84;100702.81;5070203;28;20007;-56
2023/05/26 04:11:55;;;;;;;;;;;;;;;15.46;78.51;100697.59;5069517;28;19962;-56
2023/05/26 04:14:20;;;;;;;;;;;;;;;15.48;78.40;100695.72;5068174;28;19912;-56
2023/05/26 04:16:46;;;;;;;;;;;;;;;15.45;79.19;100690.47;5069295;28;20651;-56
2023/05/26 04:19:11;;;;;;;;;;;;;;;15.33;78.78;100700.81;5068483;28;19919;-56
2023/05/26 04:21:36;;;;;;;;;;;;;;;15.27;78.86;100696.56;5055212;28;19943;-56
2023/05/26 04:24:02;;;;;;;;;;;;;;;15.26;79.77;100696.63;5048794;28;19924;-56
2023/05/26 04:26:28;;;;;;;;;;;;;;;15.39;78.80;100703.25;5062084;28;19966;-56
2023/05/26 04:28:56;;;;;;;;;;;;;;;15.40;78.40;100700.50;5068929;28;19962;-56
2023/05/26 04:31:21;;;;;;;;;;;;;;;15.35;79.15;100705.16;5065629;28;19994;-56
2023/05/26 04:33:47;;;;;;;;;;;;;;;15.40;79.20;100703.19;5052915;28;19998;-57
2023/05/26 04:36:16;;;;;;;;;;;;;;;15.43;78.88;100708.44;5069314;28;19923;-57
2023/05/26 04:38:42;;;;;;;;;;;;;;;15.41;78.97;100704.94;5068997;28;20011;-57
2023/05/26 04:41:07;;;;;;;;;;;;;;;15.41;78.91;100704.06;5069406;28;20316;-57
2023/05/26 04:43:35;;;;;;;;;;;;;;;15.42;79.17;100706.69;5068286;28;19916;-57
2023/05/26 04:46:02;;;;;;;;;;;;;;;15.44;78.33;100703.94;5069191;28;19958;-57
2023/05/26 04:48:27;;;;;;;;;;;;;;;15.48;78.83;100706.44;5068020;28;19918;-56
2023/05/26 04:50:53;;;;;;;;;;;;;;;15.50;78.68;100703.72;5068987;28;20326;-56
2023/05/26 04:53:18;;;;;;;;;;;;;;;15.47;80.10;100699.31;5067576;28;19959;-57
2023/05/26 04:55:44;;;;;;;;;;;;;;;15.56;79.16;100708.81;5052924;28;20022;-56
2023/05/26 04:58:10;;;;;;;;;;;;;;;15.61;78.90;100715.72;5049528;28;20379;-56
2023/05/26 05:00:36;;;;;;;;;;;;;;;15.63;78.71;100721.88;5061216;28;19920;-57
2023/05/26 05:03:02;;;;;;;;;;;;;;;15.80;77.90;100716.69;5068938;28;20335;-57
2023/05/26 05:05:28;;;;;;;;;;;;;;;15.86;78.25;100712.88;5068741;28;19944;-56
2023/05/26 05:07:53;;;;;;;;;;;;;;;15.93;78.21;100718.84;5068366;28;20040;-57
2023/05/26 05:10:18;;;;;;;;;;;;;;;15.87;77.86;100724.47;5069730;28;19920;-57
2023/05/26 05:12:43;;;;;;;;;;;;;;;15.93;77.07;100727.75;5069195;28;19912;-57
2023/05/26 05:15:09;;;;;;;;;;;;;;;16.05;77.78;100731.72;5068191;28;19926;-57
2023/05/26 05:17:34;;;;;;;;;;;;;;;16.20;76.89;100731.03;5069241;28;20318;-56
2023/05/26 05:20:00;;;;;;;;;;;;;;;16.29;76.04;100738.72;5068596;28;19916;-57
2023/05/26 05:22:25;;;;;;;;;;;;;;;16.42;75.00;100734.53;5051558;28;20382;-57
2023/05/26 05:24:50;;;;;;;;;;;;;;;16.51;75.65;100732.31;5069323;28;20372;-57
2023/05/26 05:27:16;;;;;;;;;;;;;;;16.58;75.64;100730.25;5068714;28;19916;-56
2023/05/26 05:29:41;;;;;;;;;;;;;;;16.65;74.30;100742.44;5069057;28;19916;-56
2023/05/26 05:32:06;;;;;;;;;;;;;;;16.74;74.88;100732.16;5067939;28;19919;-57
2023/05/26 05:34:31;;;;;;;;;;;;;;;16.75;73.81;100744.63;5068901;28;19920;-56
2023/05/26 05:36:57;;;;;;;;;;;;;;;16.73;74.39;100749.22;5069041;28;19913;-57
2023/05/26 05:39:22;;;;;;;;;;;;;;;16.69;73.47;100750.28;5068333;28;19916;-57
2023/05/26 05:41:47;;;;;;;;;;;;;;;16.86;73.18;100754.88;5069534;28;20022;-57
2023/05/26 05:44:12;;;;;;;;;;;;;;;17.02;73.84;100750.53;5068940;28;19916;-56
2023/05/26 05:46:39;;;;;;;;;;;;;;;17.13;73.46;100751.78;5068431;28;19996;-57
2023/05/26 05:49:04;;;;;;;;;;;;;;;17.27;73.10;100752.91;5060911;28;19913;-57
2023/05/26 05:51:30;;;;;;;;;;;;;;;17.26;72.06;100757.44;5048889;28;19913;-56
2023/05/26 05:53:55;;;;;;;;;;;;;;;17.30;72.22;100763.56;5048540;28;19917;-56
2023/05/26 05:56:21;;;;;;;;;;;;;;;17.37;71.09;100757.78;5053819;28;20272;-56
2023/05/26 05:58:46;;;;;;;;;;;;;;;17.43;71.95;100759.31;5069021;28;19912;-56
2023/05/26 06:01:11;;;;;;;;;;;;;;;17.51;70.83;100758.00;5068556;28;19935;-56
2023/05/26 06:03:36;;;;;;;;;;;;;;;17.54;70.07;100757.88;5069016;28;19920;-56
2023/05/26 06:06:02;;;;;;;;;;;;;;;17.75;70.61;100762.19;5068797;28;19912;-56
2023/05/26 06:08:27;;;;;;;;;;;;;;;17.86;69.83;100765.22;5067656;28;19916;-56
2023/05/26 06:10:52;;;;;;;;;;;;;;;17.73;68.50;100771.28;5068806;28;19919;-56
2023/05/26 06:13:17;;;;;;;;;;;;;;;17.79;69.53;100777.22;5068928;28;19970;-56
2023/05/26 06:15:43;;;;;;;;;;;;;;;17.84;68.74;100783.25;5064394;28;19915;-56
2023/05/26 06:18:08;;;;;;;;;;;;;;;17.95;68.96;100778.22;5072285;28;20581;-56
2023/05/26 06:20:33;;;;;;;;;;;;;;;18.14;68.13;100786.22;5072605;28;19923;-56
2023/05/26 06:22:58;;;;;;;;;;;;;;;18.23;68.34;100781.25;5072026;28;19995;-56
2023/05/26 06:25:24;;;;;;;;;;;;;;;18.45;67.30;100790.94;5070802;28;20471;-56
2023/05/26 06:27:49;;;;;;;;;;;;;;;18.49;67.12;100787.09;5072435;28;19932;-56
2023/05/26 06:30:14;;;;;;;;;;;;;;;18.47;65.91;100783.66;5071003;28;19920;-57
2023/05/26 06:32:41;;;;;;;;;;;;;;;18.61;66.65;100783.78;5071744;28;19920;-56
2023/05/26 06:35:06;;;;;;;;;;;;;;;18.67;65.81;100786.13;5072429;28;19924;-56
2023/05/26 06:37:31;;;;;;;;;;;;;;;18.74;65.74;100783.03;5069041;28;19912;-56
2023/05/26 06:39:57;;;;;;;;;;;;;;;18.98;66.97;100781.69;5055895;28;19927;-56
2023/05/26 06:42:23;;;;;;;;;;;;;;;19.07;65.70;100783.91;5071741;28;19913;-56
2023/05/26 06:44:48;;;;;;;;;;;;;;;19.27;66.16;100785.50;5071780;28;19912;-56
2023/05/26 06:47:14;;;;;;;;;;;;;;;19.49;64.36;100781.53;5053541;28;19985;-56
2023/05/26 06:49:39;;;;;;;;;;;;;;;19.65;63.79;100786.94;5060115;28;19951;-56
2023/05/26 06:52:04;;;;;;;;;;;;;;;19.55;62.42;100788.41;5071693;28;19912;-56
2023/05/26 06:54:29;;;;;;;;;;;;;;;19.67;62.60;100798.47;5069041;28;19916;-56
2023/05/26 06:56:55;;;;;;;;;;;;;;;19.88;61.74;100789.16;5071733;28;19916;-56
2023/05/26 06:59:20;;;;;;;;;;;;;;;20.06;61.70;100790.78;5071650;28;20382;-56
2023/05/26 07:01:45;;;;;;;;;;;;;;;20.19;60.37;100788.25;5067800;28;19920;-56
2023/05/26 07:04:10;;;;;;;;;;;;;;;20.11;59.69;100793.22;5071597;28;19927;-56
2023/05/26 07:06:36;;;;;;;;;;;;;;;20.23;60.76;100793.38;5070193;28;20025;-56
2023/05/26 07:09:01;;;;;;;;;;;;;;;20.34;59.71;100790.03;5070749;28;19918;-56
2023/05/26 07:11:27;;;;;;;;;;;;;;;20.65;59.64;100785.38;5069887;28;19920;-56
2023/05/26 07:13:52;;;;;;;;;;;;;;;20.71;58.85;100776.88;5068919;28;19995;-57
2023/05/26 07:16:17;;;;;;;;;;;;;;;20.77;57.48;100790.00;5071173;28;19999;-57
2023/05/26 07:18:43;;;;;;;;;;;;;;;20.95;57.09;100788.84;5070378;28;19986;-56
2023/05/26 07:21:08;;;;;;;;;;;;;;;21.39;59.49;100796.00;5071057;28;20368;-57
2023/05/26 07:23:33;;;;;;;;;;;;;;;21.53;56.66;100793.28;5070375;28;19920;-56
2023/05/26 07:25:58;;;;;;;;;;;;;;;21.72;57.67;100791.09;5057277;28;19916;-56
2023/05/26 07:28:24;;;;;;;;;;;;;;;21.86;54.31;100799.25;5051289;28;19919;-57
2023/05/26 07:30:49;;;;;;;;;;;;;;;22.11;55.79;100796.59;5064170;28;19920;-57
2023/05/26 07:33:14;;;;;;;;;;;;;;;21.99;53.39;100794.75;5070929;28;19912;-56
2023/05/26 07:35:40;;;;;;;;;;;;;;;22.29;52.88;100798.06;5070657;28;19944;-56
2023/05/26 07:38:05;;;;;;;;;;;;;;;22.65;52.67;100798.25;5070267;28;19916;-57
2023/05/26 07:40:34;;;;;;;;;;;;;;;22.88;51.77;100797.50;5069793;28;19916;-57
2023/05/26 07:42:59;;;;;;;;;;;;;;;23.09;50.11;100801.44;5070579;28;19912;-57
2023/05/26 07:45:25;;;;;;;;;;;;;;;23.33;50.15;100794.25;5069940;28;19920;-57
2023/05/26 07:47:50;;;;;;;;;;;;;;;23.61;49.39;100798.53;5070655;28;19908;-56
2023/05/26 07:50:15;;;;;;;;;;;;;;;23.40;48.85;100800.09;5069839;28;19920;-56
2023/05/26 07:52:41;;;;;;;;;;;;;;;23.66;48.28;100800.94;5053658;28;19919;-56
2023/05/26 07:55:06;;;;;;;;;;;;;;;23.64;47.14;100803.72;5050276;28;19979;-57
2023/05/26 07:57:31;;;;;;;;;;;;;;;23.86;49.05;100803.88;5050533;28;19913;-56
2023/05/26 07:59:57;;;;;;;;;;;;;;;24.21;48.87;100804.84;5062798;28;20438;-56
2023/05/26 08:02:22;;;;;;;;;;;;;;;24.29;46.83;100812.41;5068794;28;19916;-57
2023/05/26 08:04:48;;;;;;;;;;;;;;;24.05;47.75;100806.13;5070331;28;20372;-57
2023/05/26 08:07:13;;;;;;;;;;;;;;;24.38;48.52;100801.69;5068815;28;20623;-57
2023/05/26 08:09:38;;;;;;;;;;;;;;;24.68;45.99;100793.03;5069878;28;20352;-57
2023/05/26 08:12:06;;;;;;;;;;;;;;;24.87;46.54;100801.47;5069940;28;19909;-57
2023/05/26 08:14:31;;;;;;;;;;;;;;;25.33;46.30;100795.94;5068891;28;19916;-57
2023/05/26 08:16:58;;;;;;;;;;;;;;;25.75;44.87;100804.22;5068666;28;20367;-57
2023/05/26 08:19:23;;;;;;;;;;;;;;;25.70;43.40;100789.25;5068393;28;19919;-57
2023/05/26 08:21:48;;;;;;;;;;;;;;;25.93;45.90;100791.78;5070168;28;19912;-57
2023/05/26 08:24:14;;;;;;;;;;;;;;;26.39;45.96;100793.38;5070172;28;20007;-57
2023/05/26 08:26:39;;;;;;;;;;;;;;;26.53;43.33;100795.78;5070006;28;19918;-57
2023/05/26 08:29:06;;;;;;;;;;;;;;;26.57;42.52;100791.78;5068412;28;19965;-56
2023/05/26 08:31:31;;;;;;;;;;;;;;;26.64;42.72;100798.47;5069681;28;19918;-57
2023/05/26 08:33:56;;;;;;;;;;;;;;;26.57;43.35;100797.25;5068697;28;19916;-57
2023/05/26 08:36:21;;;;;;;;;;;;;;;27.00;44.02;100795.28;5068930;28;19915;-56
2023/05/26 08:38:47;;;;;;;;;;;;;;;26.87;43.49;100798.19;5057028;28;19916;-57
2023/05/26 08:41:16;;;;;;;;;;;;;;;27.11;42.64;100792.47;5069476;28;19908;-57
2023/05/26 08:43:52;;;;;;;;;;;;;;;27.18;44.07;100796.38;5068316;28;20342;-56
2023/05/26 08:46:17;;;;;;;;;;;;;;;27.30;42.05;100800.75;5068778;28;19912;-57
2023/05/26 08:48:44;;;;;;;;;;;;;;;27.14;41.58;100800.38;5068824;28;19912;-57
2023/05/26 08:51:10;;;;;;;;;;;;;;;27.23;41.91;100801.44;5068610;28;19947;-56
2023/05/26 08:53:36;;;;;;;;;;;;;;;27.52;41.37;100794.22;5067320;28;19916;-56
2023/05/26 08:56:02;;;;;;;;;;;;;;;27.50;41.42;100796.22;5066679;28;19912;-57
2023/05/26 08:58:28;;;;;;;;;;;;;;;27.49;42.08;100792.66;5049325;28;19956;-56
2023/05/26 09:00:53;;;;;;;;;;;;;;;27.26;41.79;100785.63;5048700;28;19973;-57
2023/05/26 09:03:18;;;;;;;;;;;;;;;27.27;41.50;100757.28;5068280;28;19946;-56
2023/05/26 09:05:44;;;;;;;;;;;;;;;27.56;42.41;100785.59;5068769;28;19916;-57
2023/05/26 09:08:12;;;;;;;;;;;;;;;27.89;41.63;100796.22;5068091;28;19912;-56
2023/05/26 09:10:38;;;;;;;;;;;;;;;28.01;40.91;100792.38;5063587;28;19916;-57
2023/05/26 09:13:07;;;;;;;;;;;;;;;27.86;40.51;100784.69;5064154;28;20010;-57
2023/05/26 09:15:33;;;;;;;;;;;;;;;27.48;42.83;100790.91;5068983;28;19947;-57
2023/05/26 09:18:05;;;;;;;;;;;;;;;27.78;41.85;100788.13;5068665;28;20564;-56
2023/05/26 09:20:31;;;;;;;;;;;;;;;27.89;42.29;100796.22;5068369;28;20454;-56
2023/05/26 09:22:57;;;;;;;;;;;;;;;27.86;41.85;100790.13;5068635;28;19995;-57
2023/05/26 09:25:43;;;;;;;;;;;;;;;27.71;42.43;100786.94;5061268;28;19963;-56
2023/05/26 09:28:09;;;;;;;;;;;;;;;28.12;43.35;100792.22;5047791;28;20316;-57
2023/05/26 09:30:36;;;;;;;;;;;;;;;27.60;41.62;100789.81;5051366;28;19912;-57
2023/05/26 09:33:02;;;;;;;;;;;;;;;27.45;41.59;100795.78;5067526;28;19970;-56
2023/05/26 09:35:33;;;;;;;;;;;;;;;28.21;42.55;100787.78;5068340;28;19962;-57
2023/05/26 09:37:58;;;;;;;;;;;;;;;28.50;40.99;100790.56;5068328;28;19915;-56
2023/05/26 09:40:24;;;;;;;;;;;;;;;28.49;40.57;100784.22;5067894;28;20573;-57
2023/05/26 09:42:53;;;;;;;;;;;;;;;28.78;40.17;100784.19;5059706;28;19912;-57
2023/05/26 09:45:18;;;;;;;;;;;;;;;28.77;38.97;100790.66;5057163;28;19916;-57
2023/05/26 09:47:43;;;;;;;;;;;;;;;28.65;38.41;100786.38;5053053;28;19966;-56
2023/05/26 09:50:09;;;;;;;;;;;;;;;28.73;39.98;100787.34;5050595;28;20268;-56
2023/05/26 09:52:35;;;;;;;;;;;;;;;28.88;41.38;100788.59;5052222;28;20008;-56
2023/05/26 09:55:01;;;;;;;;;;;;;;;28.99;39.73;100788.47;5064947;28;19916;-57
2023/05/26 09:57:28;;;;;;;;;;;;;;;29.20;39.34;100785.53;5058443;28;19919;-57
2023/05/26 09:59:53;;;;;;;;;;;;;;;29.26;38.42;100790.41;5054744;28;19917;-57
2023/05/26 10:02:23;;;;;;;;;;;;;;;29.12;40.08;100785.41;5056007;28;20343;-56
2023/05/26 10:04:49;;;;;;;;;;;;;;;29.32;38.40;100789.81;5052761;28;20003;-57
2023/05/26 10:07:18;;;;;;;;;;;;;;;29.35;38.94;100789.50;5060488;28;19916;-56
2023/05/26 10:09:53;;;;;;;;;;;;;;;28.65;38.67;100791.84;5063358;28;19912;-56
2023/05/26 10:12:22;;;;;;;;;;;;;;;28.57;39.95;100786.25;5051451;28;19913;-56
2023/05/26 10:14:47;;;;;;;;;;;;;;;28.76;38.21;100792.56;5051146;28;19912;-56
2023/05/26 10:17:13;;;;;;;;;;;;;;;28.66;39.57;100790.81;5061260;28;19920;-56
2023/05/26 10:19:39;;;;;;;;;;;;;;;28.91;38.60;100782.00;5051715;28;19916;-57
2023/05/26 10:22:07;;;;;;;;;;;;;;;28.77;38.39;100783.31;5056111;28;19923;-56
2023/05/26 10:24:37;;;;;;;;;;;;;;;28.88;37.64;100785.03;5068758;28;19916;-56
2023/05/26 10:27:12;;;;;;;;;;;;;;;29.41;38.95;100783.41;5051169;28;20343;-57
2023/05/26 10:30:01;;;;;;;;;;;;;;;29.37;37.16;100788.31;5054816;28;20007;-57
2023/05/26 10:32:49;;;;;;;;;;;;;;;29.39;37.68;100783.56;5042785;28;19916;-56
2023/05/26 10:35:22;;;;;;;;;;;;;;;29.75;37.81;100780.97;5039803;28;19917;-56
2023/05/26 10:37:53;;;;;;;;;;;;;;;29.97;36.87;100786.88;5059311;28;19962;-56
2023/05/26 10:40:29;;;;;;;;;;;;;;;29.81;37.42;100789.44;5051437;28;19919;-56
2023/05/26 10:43:01;;;;;;;;;;;;;;;29.48;36.70;100784.53;5062966;28;19921;-56
2023/05/26 10:45:32;;;;;;;;;;;;;;;29.24;37.44;100781.47;5069998;28;20004;-56
2023/05/26 10:48:00;;;;;;;;;;;;;;;29.14;37.73;100780.66;5057404;28;19920;-56
2023/05/26 10:50:26;;;;;;;;;;;;;;;29.16;36.66;100784.13;5070080;28;20969;-57
2023/05/26 10:52:51;;;;;;;;;;;;;;;29.43;38.55;100778.66;5070756;28;19908;-56
2023/05/26 10:55:29;;;;;;;;;;;;;;;29.70;37.72;100777.81;5058770;28;19921;-55
2023/05/26 10:58:14;;;;;;;;;;;;;;;29.79;36.25;100774.13;5061991;28;20344;-56
2023/05/26 11:00:43;;;;;;;;;;;;;;;29.80;37.17;100768.53;5067011;28;19916;-55
2023/05/26 11:03:27;;;;;;;;;;;;;;;29.83;36.16;100767.34;5057758;28;19944;-55
2023/05/26 11:05:55;;;;;;;;;;;;;;;30.08;36.46;100767.47;5053503;28;19981;-55
2023/05/26 11:08:21;;;;;;;;;;;;;;;30.38;36.53;100766.22;5039610;28;20556;-55
2023/05/26 11:11:00;;;;;;;;;;;;;;;30.11;35.84;100769.00;5050726;28;19962;-56
2023/05/26 11:13:43;;;;;;;;;;;;;;;29.86;36.27;100759.66;5068075;28;20357;-56
2023/05/26 11:16:12;;;;;;;;;;;;;;;30.03;36.61;100753.34;5071333;28;20660;-57
2023/05/26 11:18:46;;;;;;;;;;;;;;;30.08;36.54;100756.47;5064201;28;20023;-56
2023/05/26 11:21:12;;;;;;;;;;;;;;;30.10;35.82;100765.41;5050878;28;19920;-56
2023/05/26 11:23:37;;;;;;;;;;;;;;;29.89;37.00;100762.09;5061471;28;19917;-56
2023/05/26 11:26:09;;;;;;;;;;;;;;;29.97;37.72;100759.44;5050900;28;19912;-56
2023/05/26 11:28:34;;;;;;;;;;;;;;;30.23;37.81;100738.44;5052412;28;19955;-56
2023/05/26 11:31:08;;;;;;;;;;;;;;;30.48;37.78;100756.88;5056275;28;19947;-56
2023/05/26 11:33:33;;;;;;;;;;;;;;;30.14;35.67;100742.13;5053331;28;19967;-56
2023/05/26 11:36:04;;;;;;;;;;;;;;;30.49;36.87;100747.63;5049744;28;19956;-56
2023/05/26 11:38:30;;;;;;;;;;;;;;;30.83;34.89;100740.34;5055664;28;19916;-56
2023/05/26 11:40:55;;;;;;;;;;;;;;;31.23;35.36;100747.09;5065957;28;19918;-56
2023/05/26 11:43:23;;;;;;;;;;;;;;;31.22;35.45;100748.13;5057520;28;20423;-56
2023/05/26 11:45:52;;;;;;;;;;;;;;;31.01;35.32;100751.28;5061850;28;20361;-56
2023/05/26 11:48:17;;;;;;;;;;;;;;;31.23;33.66;100747.09;5058714;28;19916;-56
2023/05/26 11:50:42;;;;;;;;;;;;;;;30.87;34.43;100744.47;5054624;28;19936;-56
2023/05/26 11:53:08;;;;;;;;;;;;;;;30.65;35.16;100745.00;5056114;28;19912;-56
2023/05/26 11:55:33;;;;;;;;;;;;;;;31.03;34.75;100740.09;5064317;28;19912;-56
2023/05/26 11:57:58;;;;;;;;;;;;;;;31.49;36.15;100743.31;5049628;28;19920;-56
2023/05/26 12:00:24;;;;;;;;;;;;;;;31.41;33.98;100737.78;5055928;28;19912;-56
2023/05/26 12:02:49;;;;;;;;;;;;;;;31.30;34.34;100745.41;5066115;28;19986;-56
2023/05/26 12:05:16;;;;;;;;;;;;;;;31.09;33.82;100743.06;5052613;28;19916;-56
2023/05/26 12:07:41;;;;;;;;;;;;;;;31.22;34.42;100746.22;5055832;28;19913;-56
2023/05/26 12:10:07;;;;;;;;;;;;;;;31.75;34.53;100749.56;5049848;28;20461;-56
2023/05/26 12:12:52;;;;;;;;;;;;;;;31.82;33.36;100745.13;5058194;28;19917;-56
2023/05/26 12:15:19;;;;;;;;;;;;;;;31.71;33.10;100744.59;5062912;28;20701;-56
2023/05/26 12:17:44;;;;;;;;;;;;;;;31.55;34.38;100739.03;5052239;28;19939;-56
2023/05/26 12:20:13;;;;;;;;;;;;;;;31.61;34.97;100735.59;5054430;28;19947;-56
2023/05/26 12:22:39;;;;;;;;;;;;;;;32.18;33.16;100729.22;5049084;28;20003;-56
2023/05/26 12:25:04;;;;;;;;;;;;;;;31.77;33.28;100732.91;5049290;28;20003;-56
2023/05/26 12:27:37;;;;;;;;;;;;;;;31.91;34.23;100735.03;5050467;28;19916;-56
2023/05/26 12:30:18;;;;;;;;;;;;;;;31.79;34.71;100730.84;5065233;28;20496;-56
2023/05/26 12:32:44;;;;;;;;;;;;;;;32.28;34.25;100724.41;5066989;28;19912;-56
2023/05/26 12:35:09;;;;;;;;;;;;;;;32.42;33.80;100718.25;5066152;28;20248;-56